Time;durP1;ratioP1;P1;durP2;ratioP2;P2;SDS_P1;SDS_P2;PMS_P1;PMS_P2;Temp;Humidity;BMP_temperature;BMP_pressure;BME280_temperature;BME280_humidity;BME280_pressure;Samples;Min_cycle;Max_cycle;Signal;HPM_P1;HPM_P2
2022/08/26 00:02:04;;;;;;;43.65;38.90;;;;;;;22.71;70.23;99453.94;5049375;28;20053;-71
2022/08/26 00:04:33;;;;;;;41.58;37.15;;;;;;;22.65;70.27;99450.06;5050274;28;20056;-71
2022/08/26 00:07:00;;;;;;;43.20;38.55;;;;;;;22.63;70.17;99461.97;5049485;28;20151;-72
2022/08/26 00:09:26;;;;;;;40.75;36.58;;;;;;;22.58;70.48;99459.75;5050283;28;20053;-71
2022/08/26 00:11:54;;;;;;;43.35;38.85;;;;;;;22.55;71.14;99459.25;5050177;28;20492;-71
2022/08/26 00:14:21;;;;;;;42.40;37.80;;;;;;;22.47;71.42;99460.91;5049745;28;20052;-71
2022/08/26 00:16:48;;;;;;;43.72;38.58;;;;;;;22.43;71.56;99462.22;5049405;28;20045;-71
2022/08/26 00:19:15;;;;;;;39.70;35.50;;;;;;;22.37;71.39;99459.31;5049779;28;20048;-71
2022/08/26 00:21:43;;;;;;;42.13;33.28;;;;;;;22.33;71.14;99466.03;5049931;28;20055;-71
2022/08/26 00:24:10;;;;;;;40.08;32.22;;;;;;;22.26;71.42;99463.94;5049787;28;20421;-71
2022/08/26 00:26:38;;;;;;;31.75;28.38;;;;;;;22.26;70.81;99466.63;5049202;28;20190;-71
2022/08/26 00:29:04;;;;;;;30.67;26.25;;;;;;;22.25;70.51;99461.44;5049621;28;20044;-70
2022/08/26 00:31:31;;;;;;;27.77;22.92;;;;;;;22.18;70.79;99463.03;5049716;28;20051;-70
2022/08/26 00:33:58;;;;;;;28.08;24.85;;;;;;;22.14;70.60;99464.34;5049991;28;20511;-70
2022/08/26 00:36:24;;;;;;;22.17;18.75;;;;;;;22.16;70.29;99467.72;5049142;28;20469;-70
2022/08/26 00:38:52;;;;;;;27.65;21.45;;;;;;;22.17;70.16;99472.91;5049642;28;20041;-71
2022/08/26 00:41:19;;;;;;;26.15;23.33;;;;;;;22.16;70.84;99473.09;5049662;28;20427;-73
2022/08/26 00:43:46;;;;;;;27.88;24.92;;;;;;;22.14;71.00;99469.72;5049772;28;20520;-71
2022/08/26 00:46:16;;;;;;;30.33;24.20;;;;;;;22.08;71.09;99463.97;5048492;28;20614;-73
2022/08/26 00:48:46;;;;;;;28.48;24.25;;;;;;;22.07;71.23;99466.81;5055646;28;20050;-71
2022/08/26 00:51:16;;;;;;;27.95;21.33;;;;;;;22.14;70.85;99469.72;5061905;28;20048;-71
2022/08/26 00:53:53;;;;;;;26.70;22.23;;;;;;;22.09;71.07;99479.09;5050379;28;20135;-71
2022/08/26 00:56:31;;;;;;;28.50;23.50;;;;;;;22.06;71.18;99479.41;5049060;28;20500;-71
2022/08/26 00:59:03;;;;;;;28.63;19.88;;;;;;;22.01;71.20;99479.03;5049474;28;20552;-72
2022/08/26 01:01:29;;;;;;;20.63;18.08;;;;;;;22.01;71.10;99476.34;5049496;28;20049;-71
2022/08/26 01:03:56;;;;;;;26.17;18.73;;;;;;;22.00;71.09;99485.41;5049232;28;20497;-72
2022/08/26 01:06:24;;;;;;;28.27;17.92;;;;;;;21.97;71.14;99482.19;5048714;28;20053;-72
2022/08/26 01:08:51;;;;;;;22.48;16.65;;;;;;;21.96;71.29;99484.03;5048972;28;20060;-72
2022/08/26 01:11:19;;;;;;;19.75;15.38;;;;;;;21.99;70.99;99498.97;5049252;28;20122;-72
2022/08/26 01:13:49;;;;;;;25.45;18.65;;;;;;;21.99;70.85;99493.59;5049378;28;20076;-72
2022/08/26 01:16:16;;;;;;;24.27;15.10;;;;;;;21.95;71.15;99487.69;5048642;28;20052;-73
2022/08/26 01:18:45;;;;;;;20.73;16.63;;;;;;;21.91;71.25;99489.03;5049254;28;20049;-73
2022/08/26 01:21:20;;;;;;;18.10;15.02;;;;;;;21.82;71.54;99489.94;5049688;28;20045;-75
2022/08/26 01:23:49;;;;;;;;;;;;;;;21.80;71.78;99498.16;5049761;28;20141;-71
2022/08/26 01:26:20;;;;;;;18.90;13.48;;;;;;;21.83;71.67;99488.94;5048569;28;19924;-69
2022/08/26 01:28:49;;;;;;;27.17;17.23;;;;;;;21.82;71.81;99488.09;5048923;28;20099;-69
2022/08/26 01:31:18;;;;;;;29.40;17.80;;;;;;;21.80;71.94;99490.09;5049220;28;20049;-70
2022/08/26 01:33:52;;;;;;;23.77;16.08;;;;;;;21.81;71.87;99490.97;5049091;28;20049;-70
2022/08/26 01:36:19;;;;;;;26.67;16.58;;;;;;;21.85;71.83;99486.94;5048386;28;20057;-69
2022/08/26 01:38:45;;;;;;;22.50;15.85;;;;;;;21.83;71.82;99484.44;5048854;28;20049;-69
2022/08/26 01:41:15;;;;;;;24.38;13.75;;;;;;;21.91;71.31;99491.72;5049217;28;20220;-71
2022/08/26 01:43:44;;;;;;;18.92;15.02;;;;;;;21.92;71.17;99498.75;5048950;28;20099;-71
2022/08/26 01:46:13;;;;;;;15.77;13.25;;;;;;;21.94;71.44;99493.25;5048009;28;20053;-72
2022/08/26 01:48:42;;;;;;;23.30;13.48;;;;;;;22.02;70.81;99493.28;5040847;28;20135;-71
2022/08/26 01:51:11;;;;;;;20.63;13.85;;;;;;;22.02;70.93;99499.50;5048675;28;20055;-73
2022/08/26 01:53:39;;;;;;;19.63;15.95;;;;;;;22.01;70.68;99492.44;5048637;28;20049;-72
2022/08/26 01:56:07;;;;;;;23.13;17.13;;;;;;;22.00;70.95;99495.28;5048256;28;20056;-72
2022/08/26 01:58:39;;;;;;;27.38;15.95;;;;;;;21.96;71.30;99496.63;5048693;28;20528;-73
2022/08/26 02:01:06;;;;;;;24.27;14.85;;;;;;;21.96;71.31;99497.44;5048476;28;20044;-73
2022/08/26 02:03:36;;;;;;;20.83;15.30;;;;;;;21.93;71.41;99500.47;5048054;28;20051;-73
2022/08/26 02:06:07;;;;;;;19.88;15.45;;;;;;;21.91;71.81;99502.44;5041177;28;20473;-72
2022/08/26 02:08:38;;;;;;;20.90;12.48;;;;;;;21.88;71.82;99500.09;5048730;28;20049;-74
2022/08/26 02:11:06;;;;;;;18.98;14.23;;;;;;;21.85;71.87;99506.56;5048495;28;20059;-72
2022/08/26 02:13:38;;;;;;;15.93;12.13;;;;;;;21.86;71.73;99510.13;5048604;28;20063;-72
2022/08/26 02:16:05;;;;;;;17.77;13.60;;;;;;;21.86;71.55;99508.28;5048062;28;20142;-73
2022/08/26 02:18:37;;;;;;;17.35;14.15;;;;;;;21.92;71.38;99509.50;5048653;28;20048;-72
2022/08/26 02:21:05;;;;;;;20.17;16.17;;;;;;;21.93;71.29;99511.19;5048591;28;20083;-74
2022/08/26 02:23:31;;;;;;;13.43;11.50;;;;;;;21.90;71.39;99506.09;5048711;28;20053;-71
2022/08/26 02:26:05;;;;;;;15.23;13.23;;;;;;;21.92;71.23;99506.81;5051102;28;20088;-70
2022/08/26 02:28:39;;;;;;;22.45;14.55;;;;;;;21.92;71.15;99509.50;5052123;28;20087;-69
2022/08/26 02:31:06;;;;;;;19.90;13.65;;;;;;;21.91;71.19;99513.19;5052101;28;20049;-69
2022/08/26 02:33:32;;;;;;;19.58;14.30;;;;;;;21.87;71.33;99501.91;5052147;28;20214;-69
2022/08/26 02:35:59;;;;;;;18.17;13.10;;;;;;;21.86;71.38;99510.97;5051503;28;20431;-68
2022/08/26 02:38:26;;;;;;;21.98;13.35;;;;;;;21.80;71.69;99503.50;5051655;28;20140;-73
2022/08/26 02:40:53;;;;;;;14.43;11.48;;;;;;;21.76;71.92;99509.38;5051815;28;20049;-69
2022/08/26 02:43:19;;;;;;;14.98;13.02;;;;;;;21.76;71.73;99509.38;5051627;28;20688;-69
2022/08/26 02:45:47;;;;;;;17.30;11.77;;;;;;;21.77;71.70;99505.66;5051062;28;20072;-70
2022/08/26 02:48:16;;;;;;;12.30;9.80;;;;;;;21.78;71.84;99500.16;5051061;28;20049;-69
2022/08/26 02:50:43;;;;;;;16.75;11.25;;;;;;;21.77;71.61;99500.31;5051867;28;20055;-71
2022/08/26 02:53:12;;;;;;;14.45;10.25;;;;;;;21.74;71.68;99498.78;5053866;28;20049;-69
2022/08/26 02:55:39;;;;;;;18.25;12.30;;;;;;;21.68;71.82;99496.69;5051645;28;20064;-70
2022/08/26 02:58:05;;;;;;;15.45;11.32;;;;;;;21.67;71.78;99499.56;5051055;28;20057;-69
2022/08/26 03:00:35;;;;;;;17.30;12.43;;;;;;;21.69;71.88;99493.03;5051568;28;20132;-70
2022/08/26 03:03:03;;;;;;;15.73;11.07;;;;;;;21.69;71.92;99492.19;5051638;28;20467;-71
2022/08/26 03:05:30;;;;;;;14.73;10.23;;;;;;;21.70;71.84;99497.38;5071515;28;20458;-71
2022/08/26 03:07:57;;;;;;;15.75;11.30;;;;;;;21.70;72.09;99494.69;5073611;28;20472;-71
2022/08/26 03:10:24;;;;;;;20.23;10.05;;;;;;;21.63;72.21;99488.25;5077228;28;20041;-71
2022/08/26 03:12:50;;;;;;;18.38;11.13;;;;;;;21.58;72.59;99496.78;5077059;28;20048;-71
2022/08/26 03:15:18;;;;;;;12.13;8.65;;;;;;;21.55;72.48;99499.75;5073326;28;20401;-71
2022/08/26 03:17:46;;;;;;;18.05;9.43;;;;;;;21.54;72.87;99500.78;5057660;28;20045;-72
2022/08/26 03:20:14;;;;;;;15.93;10.88;;;;;;;21.53;72.69;99499.06;5051678;28;20141;-71
2022/08/26 03:22:41;;;;;;;16.17;10.45;;;;;;;21.52;72.87;99491.19;5051693;28;20176;-71
2022/08/26 03:25:11;;;;;;;14.52;9.25;;;;;;;21.56;72.59;99490.75;5051294;28;20041;-72
2022/08/26 03:27:38;;;;;;;16.33;10.27;;;;;;;21.56;72.69;99488.06;5050417;28;20578;-73
2022/08/26 03:32:46;;;;;;;15.07;11.10;;;;;;;21.52;72.77;99494.72;5037687;28;20447;-71
2022/08/26 03:35:15;;;;;;;16.92;11.45;;;;;;;21.53;72.95;99490.19;5050530;28;20057;-72
2022/08/26 03:37:42;;;;;;;21.38;10.75;;;;;;;21.50;72.99;99498.56;5049514;28;20139;-73
2022/08/26 03:40:10;;;;;;;14.80;11.93;;;;;;;21.44;73.23;99490.13;5050313;28;20041;-72
2022/08/26 03:42:38;;;;;;;11.38;9.65;;;;;;;21.48;72.86;99501.38;5050526;28;20427;-71
2022/08/26 03:45:05;;;;;;;19.23;11.82;;;;;;;21.48;73.14;99496.00;5050575;28;20049;-72
2022/08/26 03:47:33;;;;;;;20.95;12.63;;;;;;;21.48;73.19;99498.69;5049566;28;20092;-73
2022/08/26 03:49:59;;;;;;;14.18;11.00;;;;;;;21.46;73.21;99498.00;5050553;28;20131;-72
2022/08/26 03:52:27;;;;;;;20.08;13.68;;;;;;;21.43;73.24;99492.94;5050754;28;20417;-72
2022/08/26 03:54:54;;;;;;;22.40;13.57;;;;;;;21.41;73.26;99494.94;5050797;28;20059;-72
2022/08/26 03:57:21;;;;;;;14.50;10.48;;;;;;;21.42;73.12;99493.94;5060157;28;20124;-70
2022/08/26 03:59:48;;;;;;;12.25;10.93;;;;;;;21.45;72.89;99490.94;5056824;28;20045;-70
2022/08/26 04:02:14;;;;;;;16.70;13.23;;;;;;;21.43;72.80;99499.13;5059684;28;20083;-70
2022/08/26 04:04:41;;;;;;;18.15;12.23;;;;;;;21.40;73.22;99496.78;5062618;28;20596;-70
2022/08/26 04:07:08;;;;;;;14.45;11.27;;;;;;;21.37;73.36;99491.69;5059238;28;20132;-71
2022/08/26 04:09:36;;;;;;;13.75;10.57;;;;;;;21.34;73.32;99497.38;5062229;28;20045;-71
2022/08/26 04:12:03;;;;;;;14.38;10.40;;;;;;;21.35;73.48;99500.88;5060678;28;20105;-71
2022/08/26 04:14:30;;;;;;;13.77;11.02;;;;;;;21.34;73.45;99493.81;5058585;28;20056;-70
2022/08/26 04:16:57;;;;;;;15.90;9.45;;;;;;;21.35;73.63;99500.88;5060011;28;20049;-69
2022/08/26 04:19:24;;;;;;;14.18;9.77;;;;;;;21.37;73.48;99497.06;5057914;28;20240;-70
2022/08/26 04:21:52;;;;;;;13.65;8.68;;;;;;;21.38;73.55;99497.88;5060024;28;20143;-71
2022/08/26 04:24:21;;;;;;;11.07;9.75;;;;;;;21.36;73.65;99497.19;5060892;28;20057;-70
2022/08/26 04:26:50;;;;;;;14.68;10.95;;;;;;;21.37;73.24;99493.53;5059301;28;20535;-71
2022/08/26 04:29:20;;;;;;;17.52;11.93;;;;;;;21.33;73.36;99495.66;5060965;28;20084;-70
2022/08/26 04:31:47;;;;;;;18.70;11.52;;;;;;;21.31;73.27;99497.66;5060963;28;20053;-70
2022/08/26 04:34:14;;;;;;;13.38;10.07;;;;;;;21.27;73.30;99492.75;5062752;28;20059;-70
2022/08/26 04:36:41;;;;;;;18.55;12.10;;;;;;;21.25;73.55;99489.38;5059783;28;20572;-71
2022/08/26 04:39:10;;;;;;;15.52;10.30;;;;;;;21.26;73.62;99493.75;5058334;28;20059;-71
2022/08/26 04:41:37;;;;;;;13.57;10.40;;;;;;;21.29;73.14;99493.44;5060387;28;20435;-71
2022/08/26 04:44:06;;;;;;;15.30;11.27;;;;;;;21.28;73.51;99499.81;5064682;28;20119;-69
2022/08/26 04:46:33;;;;;;;14.73;11.55;;;;;;;21.27;73.29;99503.50;5051742;28;20053;-70
2022/08/26 04:48:59;;;;;;;23.38;15.15;;;;;;;21.18;73.69;99505.22;5052589;28;20087;-72
2022/08/26 04:51:27;;;;;;;18.20;13.23;;;;;;;21.17;73.73;99500.88;5051670;28;20098;-72
2022/08/26 04:53:55;;;;;;;11.82;10.63;;;;;;;21.17;73.73;99508.91;5051714;28;20272;-72
2022/08/26 04:56:23;;;;;;;15.88;13.48;;;;;;;21.18;73.36;99499.84;5051378;28;20048;-72
2022/08/26 04:58:49;;;;;;;29.55;14.90;;;;;;;21.17;73.63;99503.53;5050286;28;20139;-72
2022/08/26 05:01:18;;;;;;;16.35;13.60;;;;;;;21.16;73.55;99505.34;5050344;28;20041;-74
2022/08/26 05:03:45;;;;;;;17.15;13.07;;;;;;;21.14;73.77;99506.50;5051667;28;20053;-73
2022/08/26 05:06:12;;;;;;;17.85;13.68;;;;;;;21.09;74.02;99506.94;5048487;28;20140;-74
2022/08/26 05:08:38;;;;;;;18.85;12.65;;;;;;;21.01;74.47;99501.50;5052128;28;20052;-71
2022/08/26 05:11:06;;;;;;;17.33;12.88;;;;;;;21.02;74.76;99508.56;5049688;28;20045;-73
2022/08/26 05:13:34;;;;;;;18.90;10.90;;;;;;;21.05;74.51;99510.09;5049426;28;20685;-75
2022/08/26 05:16:03;;;;;;;17.85;13.43;;;;;;;21.05;74.63;99504.75;5050473;28;20423;-73
2022/08/26 05:18:32;;;;;;;14.93;10.05;;;;;;;21.05;74.72;99502.06;5050504;28;20489;-73
2022/08/26 05:20:58;;;;;;;17.58;12.38;;;;;;;21.05;74.55;99513.63;5049780;28;20045;-72
2022/08/26 05:23:26;;;;;;;16.05;12.00;;;;;;;21.08;74.29;99507.13;5049436;28;20055;-72
2022/08/26 05:25:55;;;;;;;20.50;10.13;;;;;;;21.07;74.42;99514.31;5048440;28;20151;-72
2022/08/26 05:28:22;;;;;;;15.45;10.68;;;;;;;21.07;74.43;99514.31;5048621;28;20045;-71
2022/08/26 05:30:50;;;;;;;14.32;10.18;;;;;;;21.09;74.48;99512.31;5049620;28;20044;-70
2022/08/26 05:33:17;;;;;;;12.88;9.82;;;;;;;21.11;74.08;99510.34;5048938;28;20059;-71
2022/08/26 05:35:46;;;;;;;11.48;9.63;;;;;;;21.16;73.46;99507.19;5048162;28;20139;-70
2022/08/26 05:38:15;;;;;;;17.20;12.88;;;;;;;21.06;73.71;99517.16;5048569;28;20497;-72
2022/08/26 05:40:44;;;;;;;20.90;12.20;;;;;;;21.00;74.02;99515.91;5049844;28;20045;-72
2022/08/26 05:43:12;;;;;;;15.52;10.77;;;;;;;21.00;73.83;99518.59;5048916;28;20052;-72
2022/08/26 05:45:40;;;;;;;19.67;12.25;;;;;;;20.96;74.00;99522.56;5048702;28;20622;-72
2022/08/26 05:48:07;;;;;;;17.98;11.70;;;;;;;20.93;73.90;99525.53;5047882;28;20049;-72
2022/08/26 05:50:37;;;;;;;20.17;12.52;;;;;;;20.95;74.24;99528.91;5051226;28;20056;-72
2022/08/26 05:53:06;;;;;;;14.65;11.10;;;;;;;20.98;73.97;99534.81;5053243;28;20041;-72
2022/08/26 05:55:33;;;;;;;15.25;10.57;;;;;;;20.99;73.71;99528.47;5052139;28;20135;-73
2022/08/26 05:57:59;;;;;;;10.93;8.65;;;;;;;21.04;73.43;99536.03;5050867;28;20053;-72
2022/08/26 06:00:26;;;;;;;14.35;11.20;;;;;;;21.07;73.07;99535.78;5054601;28;20041;-70
2022/08/26 06:02:53;;;;;;;14.73;9.05;;;;;;;21.09;73.07;99533.75;5054671;28;20053;-72
2022/08/26 06:05:20;;;;;;;14.15;10.07;;;;;;;21.10;73.14;99537.31;5054495;28;20049;-72
2022/08/26 06:10:32;;;;;;;11.65;10.13;;;;;;;21.12;73.33;99538.00;5053540;28;20758;-71
2022/08/26 06:12:58;;;;;;;12.95;8.57;;;;;;;21.11;73.66;99545.19;5053653;28;20045;-71
2022/08/26 06:15:25;;;;;;;12.10;10.00;;;;;;;21.12;73.58;99546.88;5053159;28;20064;-72
2022/08/26 06:17:52;;;;;;;11.38;9.32;;;;;;;21.10;73.81;99543.50;5054173;28;20056;-70
2022/08/26 06:20:19;;;;;;;21.08;10.70;;;;;;;21.04;74.14;99548.59;5055404;28;20049;-72
2022/08/26 06:25:38;;;;;;;13.60;8.68;;;;;;;21.02;74.22;99552.28;5056376;28;20059;-72
2022/08/26 06:28:06;;;;;;;10.10;7.65;;;;;;;21.06;74.00;99549.31;5056402;28;20059;-72
2022/08/26 06:30:38;;;;;;;13.75;9.18;;;;;;;21.05;73.98;99553.00;5057310;28;20052;-69
2022/08/26 06:33:04;;;;;;;13.57;8.20;;;;;;;21.02;74.30;99552.28;5057184;28;20416;-71
2022/08/26 06:35:37;;;;;;;17.13;8.15;;;;;;;21.05;74.13;99550.31;5055504;28;20069;-72
2022/08/26 06:38:04;;;;;;;20.50;8.50;;;;;;;21.02;74.24;99556.81;5053421;28;20416;-70
2022/08/26 06:40:30;;;;;;;12.80;6.43;;;;;;;21.05;74.16;99544.94;5054976;28;20044;-73
2022/08/26 06:42:57;;;;;;;18.10;8.65;;;;;;;21.06;74.19;99554.66;5054069;28;20102;-74
2022/08/26 06:45:25;;;;;;;12.02;6.70;;;;;;;21.08;74.06;99552.69;5054166;28;20099;-71
2022/08/26 06:47:52;;;;;;;10.82;6.82;;;;;;;21.11;73.89;99555.91;5051119;28;20055;-72
2022/08/26 06:50:18;;;;;;;12.30;7.63;;;;;;;21.13;73.73;99553.91;5051838;28;20131;-72
2022/08/26 06:52:45;;;;;;;20.75;7.30;;;;;;;21.13;73.68;99561.13;5051607;28;20059;-72
2022/08/26 06:55:12;;;;;;;12.70;6.50;;;;;;;21.11;73.78;99547.84;5058667;28;20604;-71
2022/08/26 06:57:38;;;;;;;12.35;8.13;;;;;;;21.09;73.94;99560.56;5050906;28;20136;-71
2022/08/26 07:00:07;;;;;;;12.30;6.10;;;;;;;21.12;73.91;99562.97;5051127;28;20045;-72
2022/08/26 07:02:35;;;;;;;12.02;6.75;;;;;;;21.18;73.54;99554.31;5051438;28;20045;-71
2022/08/26 07:05:02;;;;;;;11.75;6.55;;;;;;;21.20;73.63;99559.53;5051231;28;20048;-72
2022/08/26 07:07:29;;;;;;;8.40;7.03;;;;;;;21.17;73.63;99562.53;5050777;28;20076;-73
2022/08/26 07:09:56;;;;;;;10.05;5.63;;;;;;;21.15;73.64;99561.81;5044441;28;20041;-70
2022/08/26 07:12:23;;;;;;;15.25;6.72;;;;;;;21.12;73.95;99564.81;5047412;28;20055;-71
2022/08/26 07:14:50;;;;;;;17.42;7.45;;;;;;;21.07;74.16;99567.94;5051046;28;20132;-73
2022/08/26 07:17:18;;;;;;;10.38;7.22;;;;;;;21.08;74.35;99569.59;5050661;28;20106;-70
2022/08/26 07:19:46;;;;;;;14.73;6.47;;;;;;;21.05;74.33;99563.72;5051023;28;20102;-71
2022/08/26 07:22:12;;;;;;;13.52;6.20;;;;;;;20.92;74.96;99567.56;5051039;28;20053;-71
2022/08/26 07:24:40;;;;;;;17.83;6.97;;;;;;;20.89;75.50;99562.50;5050677;28;20496;-71
2022/08/26 07:27:10;;;;;;;11.38;5.15;;;;;;;20.94;75.22;99568.25;5050048;28;20048;-71
2022/08/26 07:29:38;;;;;;;13.75;6.70;;;;;;;21.00;75.15;99564.16;5050878;28;20604;-71
2022/08/26 07:32:06;;;;;;;12.95;6.03;;;;;;;20.95;75.51;99561.91;5050730;28;20140;-72
2022/08/26 07:34:33;;;;;;;13.35;5.78;;;;;;;21.04;74.86;99573.56;5050603;28;20041;-70
2022/08/26 07:37:01;;;;;;;19.52;6.70;;;;;;;21.08;74.69;99574.97;5050212;28;20431;-72
2022/08/26 07:39:28;;;;;;;21.75;6.00;;;;;;;21.13;74.51;99578.03;5050599;28;20049;-70
2022/08/26 07:41:55;;;;;;;16.45;5.68;;;;;;;21.18;74.30;99575.75;5050481;28;20056;-72
2022/08/26 07:44:23;;;;;;;14.73;6.38;;;;;;;21.19;74.11;99576.59;5052269;28;20051;-72
2022/08/26 07:46:50;;;;;;;13.35;5.28;;;;;;;21.13;74.59;99577.22;5050700;28;20048;-72
2022/08/26 07:49:17;;;;;;;8.70;5.07;;;;;;;21.15;74.35;99585.94;5051311;28;20489;-71
2022/08/26 07:51:44;;;;;;;7.00;3.97;;;;;;;21.17;74.37;99581.28;5050658;28;20735;-70
2022/08/26 07:54:12;;;;;;;19.25;5.82;;;;;;;21.19;74.27;99588.19;5050396;28;20056;-70
2022/08/26 07:56:39;;;;;;;11.65;5.80;;;;;;;21.19;74.25;99580.16;5049700;28;20059;-71
2022/08/26 07:59:05;;;;;;;15.30;5.03;;;;;;;21.17;74.39;99589.34;5050803;28;20536;-71
2022/08/26 08:01:32;;;;;;;8.35;5.20;;;;;;;21.21;74.19;99583.50;5050065;28;21089;-71
2022/08/26 08:03:59;;;;;;;12.55;6.00;;;;;;;21.20;74.12;99578.31;5050434;28;20473;-71
2022/08/26 08:06:27;;;;;;;6.22;4.22;;;;;;;21.19;74.16;99582.84;5049078;28;20048;-72
2022/08/26 08:08:54;;;;;;;12.15;5.07;;;;;;;21.18;74.09;99583.81;5050428;28;20049;-70
2022/08/26 08:11:25;;;;;;;13.27;5.20;;;;;;;21.30;73.72;99584.47;5049918;28;20057;-55
2022/08/26 08:13:51;;;;;;;13.00;5.60;;;;;;;21.33;72.93;99586.84;5049940;28;20071;-50
2022/08/26 08:16:18;;;;;;;8.43;5.05;;;;;;;21.38;73.03;99578.34;5049279;28;20088;-52
2022/08/26 08:18:45;;;;;;;14.75;5.90;;;;;;;21.26;73.67;99584.91;5049995;28;20056;-52
2022/08/26 08:21:11;;;;;;;8.65;3.88;;;;;;;21.31;73.49;99582.63;5049509;28;20561;-55
2022/08/26 08:23:38;;;;;;;17.77;5.40;;;;;;;21.36;72.81;99589.25;5049262;28;20049;-49
2022/08/26 08:26:08;;;;;;;11.23;5.25;;;;;;;21.41;72.49;99586.13;5048924;28;20053;-52
2022/08/26 08:28:36;;;;;;;13.40;4.68;;;;;;;21.36;72.78;99583.88;5049346;28;20136;-52
2022/08/26 08:31:03;;;;;;;12.70;5.70;;;;;;;21.50;72.64;99590.59;5050237;28;20041;-51
2022/08/26 08:33:31;;;;;;;11.75;5.03;;;;;;;21.64;71.73;99586.56;5050074;28;20420;-56
2022/08/26 08:35:58;;;;;;;9.32;4.45;;;;;;;21.68;71.08;99589.75;5049154;28;20045;-54
2022/08/26 08:38:25;;;;;;;9.35;5.05;;;;;;;21.66;71.45;99587.25;5049779;28;20053;-54
2022/08/26 08:40:52;;;;;;;7.38;5.03;;;;;;;21.78;70.98;99590.53;5049530;28;20546;-52
2022/08/26 08:43:30;;;;;;;13.00;4.65;;;;;;;21.82;71.09;99591.94;5049454;28;20556;-51
2022/08/26 08:46:05;;;;;;;11.05;4.28;;;;;;;21.77;71.67;99591.53;5049149;28;20077;-49
2022/08/26 08:48:35;;;;;;;14.02;4.60;;;;;;;21.82;70.43;99591.94;5049146;28;20540;-54
2022/08/26 08:51:08;;;;;;;14.45;4.65;;;;;;;21.84;70.44;99598.00;5049736;28;20139;-54
2022/08/26 08:53:40;;;;;;;9.38;4.65;;;;;;;21.83;70.07;99599.84;5049127;28;20132;-49
2022/08/26 08:56:16;;;;;;;13.98;4.78;;;;;;;21.84;70.45;99598.00;5063870;28;20109;-49
2022/08/26 08:58:52;;;;;;;10.57;4.55;;;;;;;21.82;70.60;99606.19;5069290;28;20048;-54
2022/08/26 09:01:28;;;;;;;15.40;5.53;;;;;;;21.90;70.15;99604.59;5069324;28;20052;-57
2022/08/26 09:04:13;;;;;;;9.52;4.70;;;;;;;21.94;70.20;99608.66;5069139;28;20078;-55
2022/08/26 09:06:40;;;;;;;14.05;4.78;;;;;;;21.96;70.11;99606.66;5068774;28;20428;-68
2022/08/26 09:09:07;;;;;;;12.00;4.55;;;;;;;21.93;69.96;99610.50;5069667;28;20048;-70
2022/08/26 09:11:35;;;;;;;12.07;5.20;;;;;;;21.88;69.85;99610.13;5066143;28;20044;-71
2022/08/26 09:14:02;;;;;;;11.77;3.70;;;;;;;21.81;70.33;99614.41;5069465;28;20053;-69
2022/08/26 09:16:37;;;;;;;10.13;4.10;;;;;;;21.81;70.24;99615.25;5068489;28;20048;-69
2022/08/26 09:19:13;;;;;;;5.72;3.25;;;;;;;21.79;70.08;99611.88;5042600;28;20610;-68
2022/08/26 09:21:40;;;;;;;7.57;3.53;;;;;;;21.76;70.45;99622.06;5049145;28;20057;-68
2022/08/26 09:24:07;;;;;;;12.20;4.00;;;;;;;21.74;70.24;99624.91;5049355;28;20056;-69
2022/08/26 09:26:44;;;;;;;12.93;4.10;;;;;;;21.76;70.54;99622.91;5048652;28;20055;-67
2022/08/26 09:29:20;;;;;;;5.78;3.25;;;;;;;21.80;70.23;99624.28;5048782;28;20718;-69
2022/08/26 09:31:49;;;;;;;5.97;3.83;;;;;;;21.81;70.48;99625.16;5049322;28;20061;-69
2022/08/26 09:34:18;;;;;;;10.88;4.13;;;;;;;21.80;70.21;99628.81;5051738;28;20072;-69
2022/08/26 09:36:47;;;;;;;11.57;4.00;;;;;;;21.74;70.43;99624.91;5053134;28;20049;-69
2022/08/26 09:39:28;;;;;;;12.73;5.55;;;;;;;21.77;70.50;99631.78;5055400;28;20049;-67
2022/08/26 09:42:07;;;;;;;8.93;4.18;;;;;;;21.71;70.62;99622.53;5055311;28;20040;-69
2022/08/26 09:44:35;;;;;;;9.07;3.90;;;;;;;21.69;70.66;99627.19;5054008;28;20068;-70
2022/08/26 09:47:06;;;;;;;8.13;3.92;;;;;;;21.70;70.59;99631.53;5050471;28;20048;-68
2022/08/26 09:49:35;;;;;;;41.95;6.13;;;;;;;21.74;70.57;99632.09;5049507;28;20048;-69
2022/08/26 09:52:15;;;;;;;14.70;4.53;;;;;;;21.70;70.96;99628.03;5052688;28;20132;-70
2022/08/26 09:54:44;;;;;;;7.65;3.70;;;;;;;21.70;70.85;99636.91;5053341;28;20452;-69
2022/08/26 09:57:20;;;;;;;10.23;4.63;;;;;;;21.69;70.63;99629.88;5052956;28;20053;-70
2022/08/26 09:59:48;;;;;;;9.48;4.65;;;;;;;21.65;70.82;99634.69;5053568;28;20139;-70
2022/08/26 10:02:29;;;;;;;9.02;4.20;;;;;;;21.63;71.18;99630.47;5052944;28;20132;-69
2022/08/26 10:04:57;;;;;;;12.35;4.57;;;;;;;21.65;71.06;99632.00;5053171;28;20041;-68
2022/08/26 10:07:39;;;;;;;11.27;3.90;;;;;;;21.69;71.30;99629.03;5052980;28;20044;-69
2022/08/26 10:10:09;;;;;;;11.85;4.85;;;;;;;21.69;70.88;99627.19;5054755;28;20131;-69
2022/08/26 10:12:42;;;;;;;8.00;4.30;;;;;;;21.70;71.03;99628.03;5055614;28;20118;-69
2022/08/26 10:15:11;;;;;;;9.38;4.45;;;;;;;21.71;71.14;99624.34;5053895;28;20459;-70
2022/08/26 10:17:45;;;;;;;11.48;4.32;;;;;;;21.75;71.97;99629.25;5055104;28;20053;-69
2022/08/26 10:20:15;;;;;;;11.70;4.22;;;;;;;21.73;72.22;99627.72;5056130;28;20514;-71
2022/08/26 10:22:47;;;;;;;10.60;4.50;;;;;;;21.71;72.53;99627.03;5059022;28;20136;-67
2022/08/26 10:25:20;;;;;;;5.32;4.43;;;;;;;21.70;72.96;99622.66;5053379;28;20060;-68
2022/08/26 10:27:50;;;;;;;12.60;5.22;;;;;;;21.64;73.13;99619.59;5052599;28;20152;-68
2022/08/26 10:30:19;;;;;;;6.40;3.80;;;;;;;21.65;72.44;99620.44;5053945;28;20093;-68
2022/08/26 10:32:51;;;;;;;12.35;5.22;;;;;;;21.69;72.22;99623.66;5054975;28;20051;-68
2022/08/26 10:35:19;;;;;;;21.08;4.90;;;;;;;21.68;72.17;99617.44;5059568;28;20049;-67
2022/08/26 10:37:49;;;;;;;13.93;5.15;;;;;;;21.71;71.67;99614.47;5058266;28;20049;-70
2022/08/26 10:40:23;;;;;;;8.65;4.72;;;;;;;21.74;71.72;99618.69;5054426;28;20041;-66
2022/08/26 10:42:55;;;;;;;6.43;3.45;;;;;;;21.79;71.27;99619.06;5054930;28;20076;-69
2022/08/26 10:45:26;;;;;;;7.20;3.72;;;;;;;21.80;70.92;99615.38;5055192;28;20148;-68
2022/08/26 10:48:00;;;;;;;8.95;4.18;;;;;;;21.82;70.85;99619.59;5054317;28;20048;-69
2022/08/26 10:50:32;;;;;;;7.13;3.38;;;;;;;21.86;70.58;99612.94;5052321;28;20081;-68
2022/08/26 10:53:03;;;;;;;9.75;3.97;;;;;;;21.84;70.40;99616.78;5053052;28;20045;-69
2022/08/26 10:55:38;;;;;;;8.13;4.13;;;;;;;21.94;70.31;99620.22;5054536;28;20572;-69
2022/08/26 10:58:23;;;;;;;8.93;3.78;;;;;;;22.01;69.81;99615.09;5051899;28;20485;-68
2022/08/26 11:03:54;;;;;;;12.55;4.30;;;;;;;22.01;69.45;99609.75;5052247;28;20056;-69
2022/08/26 11:06:24;;;;;;;20.83;6.30;;;;;;;22.03;69.27;99611.28;5051153;28;20057;-69
2022/08/26 11:08:52;;;;;;;9.27;4.20;;;;;;;22.03;69.08;99610.44;5051382;28;20049;-68
2022/08/26 11:11:45;;;;;;;8.95;4.68;;;;;;;22.07;69.02;99611.78;5051079;28;20075;-68
2022/08/26 11:14:31;;;;;;;8.02;4.20;;;;;;;22.05;68.75;99616.47;5031393;28;20050;-70
2022/08/26 11:16:58;;;;;;;;;;;;;;;22.03;68.95;99610.44;5031336;28;20518;-68
2022/08/26 11:20:01;;;;;;;9.48;4.07;;;;;;;22.05;68.93;99606.59;5046125;28;19921;-68
2022/08/26 11:22:30;;;;;;;9.43;4.30;;;;;;;22.06;68.57;99612.81;5050987;28;20072;-69
2022/08/26 11:25:02;;;;;;;8.35;3.65;;;;;;;22.08;68.36;99608.97;5051244;28;20135;-70
2022/08/26 11:27:54;;;;;;;6.82;3.50;;;;;;;22.09;67.88;99612.47;5049931;28;20109;-68
2022/08/26 11:30:48;;;;;;;7.68;3.35;;;;;;;22.07;68.21;99609.09;5051104;28;20061;-69
2022/08/26 11:33:56;;;;;;;12.15;4.78;;;;;;;22.10;68.30;99614.16;5050980;28;20049;-68
2022/08/26 11:36:58;;;;;;;11.50;3.53;;;;;;;21.99;68.58;99617.94;5049790;28;20490;-68
2022/08/26 11:39:32;;;;;;;5.57;3.40;;;;;;;21.97;68.51;99621.75;5046160;28;20052;-70
2022/08/26 11:42:02;;;;;;;12.38;4.20;;;;;;;21.81;68.86;99617.09;5049471;28;20135;-70
2022/08/26 11:44:38;;;;;;;9.02;3.58;;;;;;;21.83;68.90;99620.44;5050384;28;20067;-70
2022/08/26 11:47:06;;;;;;;8.30;3.53;;;;;;;21.77;69.27;99621.06;5049667;28;20059;-69